Time;durP1;ratioP1;P1;durP2;ratioP2;P2;SDS_P1;SDS_P2;PMS_P1;PMS_P2;Temp;Humidity;BMP_temperature;BMP_pressure;BME280_temperature;BME280_humidity;BME280_pressure;Samples;Min_cycle;Max_cycle;Signal;HPM_P1;HPM_P2
2023/10/26 00:00:34;;;;;;;;;12.33;10.33;;;;;17.53;100.00;99140.72;2070967;28;45603;-63
2023/10/26 00:01:34;;;;;;;;;22.33;19.67;;;;;17.53;100.00;99139.81;2086531;28;46791;-60
2023/10/26 00:02:35;;;;;;;;;11.67;10.67;;;;;17.55;100.00;99145.97;2088657;28;45589;-60
2023/10/26 00:03:35;;;;;;;;;22.50;21.75;;;;;17.54;100.00;99153.16;2085660;28;46481;-65
2023/10/26 00:04:36;;;;;;;;;21.67;21.00;;;;;17.55;100.00;99144.13;2104943;28;46141;-60
2023/10/26 00:05:36;;;;;;;;;28.25;26.50;;;;;17.56;100.00;99145.00;2081099;28;46144;-64
2023/10/26 00:06:36;;;;;;;;;26.00;24.25;;;;;17.53;100.00;99132.66;2062878;28;46408;-60
2023/10/26 00:07:37;;;;;;;;;23.50;23.50;;;;;17.55;100.00;99130.72;2077498;28;46415;-62
2023/10/26 00:08:37;;;;;;;;;28.50;27.75;;;;;17.54;100.00;99134.38;2072205;28;45748;-64
2023/10/26 00:09:37;;;;;;;;;36.00;33.00;;;;;17.55;100.00;99127.19;2057903;28;46642;-64
2023/10/26 00:10:39;;;;;;;;;35.25;32.25;;;;;17.56;100.00;99121.69;2082186;28;46525;-62
2023/10/26 00:11:39;;;;;;;;;20.50;19.00;;;;;17.56;100.00;99123.53;2062006;28;46250;-62
2023/10/26 00:12:40;;;;;;;;;28.50;25.75;;;;;17.54;100.00;99125.47;2103222;28;44982;-63
2023/10/26 00:13:40;;;;;;;;;17.67;17.67;;;;;17.54;100.00;99120.97;2061474;28;46629;-63
2023/10/26 00:14:40;;;;;;;;;28.25;27.50;;;;;17.57;100.00;99130.59;2060799;28;46547;-63
2023/10/26 00:15:41;;;;;;;;;29.75;29.00;;;;;17.57;100.00;99118.03;2074155;28;45504;-62
2023/10/26 00:16:41;;;;;;;;;31.50;29.00;;;;;17.57;100.00;99115.38;2071454;28;45531;-63
2023/10/26 00:17:41;;;;;;;;;33.00;30.25;;;;;17.58;100.00;99110.84;2065290;28;46245;-61
2023/10/26 00:18:42;;;;;;;;;21.25;21.25;;;;;17.60;100.00;99119.63;2075001;28;46257;-66
2023/10/26 00:19:42;;;;;;;;;20.25;18.75;;;;;17.57;100.00;99114.50;2060664;28;47118;-64
2023/10/26 00:20:45;;;;;;;;;22.75;21.75;;;;;17.57;100.00;99109.16;2064406;28;46866;-66
2023/10/26 00:21:45;;;;;;;;;22.80;21.20;;;;;17.57;100.00;99114.50;2065505;28;45038;-58
2023/10/26 00:22:45;;;;;;;;;22.50;21.50;;;;;17.55;100.00;99109.25;2078844;28;44975;-63
2023/10/26 00:23:46;;;;;;;;;13.33;13.33;;;;;17.57;100.00;99103.78;2078823;27;46185;-63
2023/10/26 00:24:46;;;;;;;;;18.33;14.67;;;;;17.65;100.00;99106.72;2076957;28;45627;-64
2023/10/26 00:25:47;;;;;;;;;20.00;18.33;;;;;17.54;100.00;99104.88;2076343;28;45644;-61
2023/10/26 00:26:47;;;;;;;;;19.50;17.25;;;;;17.67;100.00;99099.44;2084339;28;46620;-65
2023/10/26 00:27:47;;;;;;;;;22.50;20.75;;;;;17.66;100.00;99103.09;2065811;28;46356;-66
2023/10/26 00:28:47;;;;;;;;;20.50;20.00;;;;;17.70;100.00;99106.41;2060482;28;46209;-61
2023/10/26 00:29:48;;;;;;;;;19.33;19.33;;;;;17.68;100.00;99109.19;2076619;28;46343;-61
2023/10/26 00:30:48;;;;;;;;;24.75;24.75;;;;;17.71;100.00;99111.66;2068715;28;45544;-66
2023/10/26 00:31:48;;;;;;;;;18.00;17.33;;;;;17.70;100.00;99101.91;2066420;28;46463;-62
2023/10/26 00:32:49;;;;;;;;;12.00;11.33;;;;;17.72;100.00;99112.50;2076830;28;46411;-60
2023/10/26 00:33:49;;;;;;;;;18.50;17.75;;;;;17.70;100.00;99101.91;2074714;28;46207;-64
2023/10/26 00:34:49;;;;;;;;;15.75;15.75;;;;;17.73;100.00;99098.13;2068863;28;46291;-64
2023/10/26 00:35:52;;;;;;;;;29.00;27.50;;;;;17.74;100.00;99094.47;2062261;28;46712;-58
2023/10/26 00:36:52;;;;;;;;;17.50;16.50;;;;;17.73;100.00;99093.59;2093677;28;46720;-62
2023/10/26 00:37:52;;;;;;;;;4.00;4.00;;;;;17.75;100.00;99093.50;2074634;28;46501;-60
2023/10/26 00:38:53;;;;;;;;;12.33;11.33;;;;;17.73;100.00;99092.75;2083000;28;46669;-62
2023/10/26 00:39:53;;;;;;;;;17.67;17.67;;;;;17.73;100.00;99090.06;2066323;28;46742;-60
2023/10/26 00:40:53;;;;;;;;;25.50;22.75;;;;;17.73;100.00;99093.59;2074397;28;45459;-61
2023/10/26 00:41:55;;;;;;;;;11.00;11.00;;;;;17.74;100.00;99089.94;2084741;28;45027;-61
2023/10/26 00:42:59;;;;;;;;;9.25;9.25;;;;;17.74;100.00;99087.28;2071582;28;45752;-59
2023/10/26 00:44:00;;;;;;;;;8.00;8.00;;;;;17.72;100.00;99083.84;2060339;28;46591;-62
2023/10/26 00:45:00;;;;;;;;;13.00;11.33;;;;;17.70;100.00;99083.13;2071306;28;45192;-63
2023/10/26 00:46:00;;;;;;;;;10.00;10.00;;;;;17.70;100.00;99083.13;2078656;28;45687;-62
2023/10/26 00:47:01;;;;;;;;;18.00;16.00;;;;;17.70;100.00;99080.44;2068420;28;46458;-60
2023/10/26 00:48:01;;;;;;;;;12.67;12.67;;;;;17.68;100.00;99084.19;2061184;28;46100;-63
2023/10/26 00:49:02;;;;;;;;;17.33;17.00;;;;;17.69;100.00;99080.56;2061981;28;46016;-61
2023/10/26 00:50:03;;;;;;;;;13.00;10.67;;;;;17.70;100.00;99090.31;2061272;28;45535;-62
2023/10/26 00:51:03;;;;;;;;;17.00;17.00;;;;;17.69;100.00;99081.41;2064249;28;46636;-62
2023/10/26 00:52:04;;;;;;;;;16.00;13.67;;;;;17.68;100.00;99084.19;2059808;28;45259;-60
2023/10/26 00:53:04;;;;;;;;;15.67;15.67;;;;;17.69;100.00;99085.94;2063170;28;45911;-58
2023/10/26 00:54:05;;;;;;;;;11.33;11.33;;;;;17.69;100.00;99081.41;2075428;28;46275;-62
2023/10/26 00:55:07;;;;;;;;;15.50;15.50;;;;;17.63;100.00;99079.16;2083735;28;47005;-64
2023/10/26 00:56:10;;;;;;;;;12.50;12.50;;;;;17.67;100.00;99080.66;2056247;28;46562;-64
2023/10/26 00:57:12;;;;;;;;;11.25;11.25;;;;;17.70;100.00;99082.28;2078015;28;45525;-55
2023/10/26 00:58:14;;;;;;;;;11.50;11.00;;;;;17.65;100.00;99083.41;2064582;28;46865;-63
2023/10/26 00:59:16;;;;;;;;;9.50;9.50;;;;;17.72;100.00;99081.16;2091030;28;46498;-62
2023/10/26 01:00:16;;;;;;;;;8.25;8.25;;;;;17.70;100.00;99087.63;2057240;28;46400;-65
2023/10/26 01:01:17;;;;;;;;;10.67;9.33;;;;;17.73;100.00;99085.56;2046418;28;46939;-60
2023/10/26 01:02:18;;;;;;;;;9.33;9.33;;;;;17.75;100.00;99088.97;2070549;28;46516;-59
2023/10/26 01:03:19;;;;;;;;;10.25;9.00;;;;;17.73;100.00;99085.56;2079489;27;46513;-60
2023/10/26 01:04:20;;;;;;;;;12.00;11.25;;;;;17.72;100.00;99083.84;2097500;28;46647;-63
2023/10/26 01:05:20;;;;;;;;;10.33;9.67;;;;;17.77;100.00;99086.16;2071854;28;45791;-63
2023/10/26 01:06:20;;;;;;;;;11.33;10.33;;;;;17.85;100.00;99089.13;2066804;28;46225;-62
2023/10/26 01:07:21;;;;;;;;;8.67;8.00;;;;;17.85;100.00;99089.13;2064606;28;46805;-62
2023/10/26 01:08:23;;;;;;;;;9.33;9.33;;;;;17.87;100.00;99082.66;2071052;28;46840;-62
2023/10/26 01:09:24;;;;;;;;;9.50;9.00;;;;;17.88;100.00;99088.88;2095469;28;47007;-62
2023/10/26 01:10:26;;;;;;;;;10.50;10.50;;;;;17.83;100.00;99086.56;2084696;28;46584;-56
2023/10/26 01:11:26;;;;;;;;;11.00;11.00;;;;;17.83;100.00;99074.97;2084812;27;47019;-63
2023/10/26 01:12:27;;;;;;;;;9.67;9.00;;;;;17.83;100.00;99077.66;2101334;28;47060;-64
2023/10/26 01:13:29;;;;;;;;;9.75;9.75;;;;;17.82;100.00;99075.97;2072126;28;46673;-61
2023/10/26 01:14:30;;;;;;;;;11.75;11.50;;;;;17.81;100.00;99074.25;2063245;28;46062;-63
2023/10/26 01:15:30;;;;;;;;;8.67;8.33;;;;;17.76;100.00;99077.25;2073992;28;46613;-63
2023/10/26 01:16:30;;;;;;;;;11.33;10.00;;;;;17.73;100.00;99072.16;2065985;28;46822;-61
2023/10/26 01:17:32;;;;;;;;;10.00;10.00;;;;;17.73;100.00;99071.28;2058782;28;46408;-64
2023/10/26 01:18:32;;;;;;;;;10.50;10.50;;;;;17.76;100.00;99071.06;2082265;28;45765;-64
2023/10/26 01:19:43;;;;;;;;;9.00;9.00;;;;;17.74;100.00;99065.81;2061802;28;46641;-64
2023/10/26 01:20:43;;;;;;;;;11.25;10.00;;;;;17.71;100.00;99068.72;2075367;28;46141;-61
2023/10/26 01:21:51;;;;;;;;;8.00;8.00;;;;;17.76;100.00;99076.41;2075771;28;47618;-60
2023/10/26 01:22:52;;;;;;;;;9.75;9.25;;;;;17.76;100.00;99071.91;2069803;28;46789;-62
2023/10/26 01:23:52;;;;;;;;;9.33;9.33;;;;;17.78;100.00;99074.47;2064209;28;45544;-63
2023/10/26 01:24:52;;;;;;;;;8.67;8.33;;;;;17.79;100.00;99073.53;2083839;28;46349;-64
2023/10/26 01:25:55;;;;;;;;;9.67;9.00;;;;;17.78;100.00;99074.47;2077642;28;46256;-58
2023/10/26 01:26:55;;;;;;;;;10.50;10.50;;;;;17.72;100.00;99065.06;2071543;28;46992;-57
2023/10/26 01:27:56;;;;;;;;;7.00;7.00;;;;;17.76;100.00;99068.38;2068043;28;46248;-61
2023/10/26 01:29:02;;;;;;;;;8.33;8.33;;;;;17.73;100.00;99071.28;2070098;28;46189;-61
2023/10/26 01:30:04;;;;;;;;;9.00;9.00;;;;;17.70;100.00;99066.16;2081215;28;46804;-65
2023/10/26 01:31:04;;;;;;;;;10.75;9.50;;;;;17.71;100.00;99065.19;2072575;28;45777;-63
2023/10/26 01:32:05;;;;;;;;;12.00;12.00;;;;;17.69;100.00;99065.31;2061901;28;47198;-63
2023/10/26 01:33:05;;;;;;;;;9.00;9.00;;;;;17.66;100.00;99062.84;2064883;28;46467;-64
2023/10/26 01:34:05;;;;;;;;;10.00;10.00;;;;;17.67;100.00;99061.03;2063806;28;46026;-65
2023/10/26 01:35:06;;;;;;;;;7.33;7.33;;;;;17.65;100.00;99063.78;2063722;28;45718;-64
2023/10/26 01:36:06;;;;;;;;;8.33;8.00;;;;;17.62;100.00;99056.84;2064752;28;46516;-64
2023/10/26 01:37:07;;;;;;;;;8.33;6.67;;;;;17.66;100.00;99060.16;2070052;28;45652;-63
2023/10/26 01:38:07;;;;;;;;;8.33;7.33;;;;;17.26;100.00;99055.13;2063709;28;45032;-62
2023/10/26 01:39:07;;;;;;;;;10.33;8.67;;;;;17.26;100.00;99060.50;2072569;28;46767;-62
2023/10/26 01:40:08;;;;;;;;;9.33;9.33;;;;;17.20;100.00;99060.13;2066487;28;46363;-61
2023/10/26 01:41:09;;;;;;;;;8.75;8.00;;;;;17.46;100.00;99063.50;2076579;28;47048;-64
2023/10/26 01:42:11;;;;;;;;;7.67;7.67;;;;;17.15;100.00;99051.56;2062213;28;46895;-63
2023/10/26 01:43:12;;;;;;;;;6.50;6.50;;;;;17.42;100.00;99056.69;2070058;28;46341;-59
2023/10/26 01:44:12;;;;;;;;;7.67;7.67;;;;;17.51;100.00;99054.13;2069717;28;46460;-60
2023/10/26 01:45:13;;;;;;;;;8.00;6.00;;;;;17.28;100.00;99057.72;2070326;28;46295;-58
2023/10/26 01:46:13;;;;;;;;;11.00;9.67;;;;;17.45;100.00;99053.75;2062846;28;46252;-61
2023/10/26 01:47:13;;;;;;;;;8.00;8.00;;;;;17.41;100.00;99050.47;2066928;28;46719;-57
2023/10/26 01:48:14;;;;;;;;;9.00;8.33;;;;;17.49;100.00;99055.22;2058519;28;46267;-62
2023/10/26 01:49:14;;;;;;;;;6.33;6.33;;;;;17.29;100.00;99048.72;2061918;28;46220;-61
2023/10/26 01:50:15;;;;;;;;;7.00;7.00;;;;;17.23;100.00;99046.47;2061258;28;45830;-62
2023/10/26 01:51:15;;;;;;;;;8.00;8.00;;;;;17.14;100.00;99042.66;2059441;28;46647;-61
2023/10/26 01:52:16;;;;;;;;;6.67;5.67;;;;;17.13;100.00;99048.13;2077670;27;46431;-61
2023/10/26 01:53:17;;;;;;;;;8.50;8.50;;;;;17.24;100.00;99042.81;2073584;27;47166;-63
2023/10/26 01:54:17;;;;;;;;;7.00;7.00;;;;;17.26;100.00;99044.41;2062429;28;46541;-64
2023/10/26 01:55:17;;;;;;;;;9.67;8.67;;;;;17.25;100.00;99048.06;2066680;28;46187;-65
2023/10/26 01:56:18;;;;;;;;;8.00;7.00;;;;;17.27;100.00;99051.47;2062645;28;46287;-63
2023/10/26 01:57:18;;;;;;;;;10.00;8.67;;;;;17.24;100.00;99042.81;2069728;28;46520;-62
2023/10/26 01:58:19;;;;;;;;;7.00;7.00;;;;;17.36;100.00;99047.25;2064531;28;46184;-61
2023/10/26 01:59:19;;;;;;;;;6.33;5.67;;;;;17.40;100.00;99043.34;2068116;28;47201;-57
2023/10/26 02:00:19;;;;;;;;;12.33;11.00;;;;;17.42;100.00;99044.13;2069850;28;46668;-64
2023/10/26 02:01:20;;;;;;;;;7.33;7.33;;;;;17.39;100.00;99038.13;2068682;28;46394;-62
2023/10/26 02:02:20;;;;;;;;;8.00;8.00;;;;;17.33;100.00;99047.50;2062798;28;46033;-65
2023/10/26 02:03:20;;;;;;;;;6.00;6.00;;;;;17.19;100.00;99043.19;2065651;28;45937;-64
2023/10/26 02:04:21;;;;;;;;;7.33;7.33;;;;;17.34;100.00;99039.34;2086304;28;46611;-60
2023/10/26 02:05:21;;;;;;;;;7.33;7.33;;;;;17.36;100.00;99041.91;2092135;28;46024;-62
2023/10/26 02:06:21;;;;;;;;;7.33;7.33;;;;;17.39;100.00;99043.47;2069642;28;46522;-62
2023/10/26 02:07:22;;;;;;;;;6.67;6.67;;;;;17.32;100.00;99041.28;2096172;28;46846;-58
2023/10/26 02:08:22;;;;;;;;;9.67;8.67;;;;;17.40;100.00;99042.50;2086680;28;46470;-62
2023/10/26 02:09:22;;;;;;;;;8.67;8.67;;;;;17.41;100.00;99030.84;2095408;28;46156;-53
2023/10/26 02:10:29;;;;;;;;;8.67;7.67;;;;;17.40;100.00;99034.47;2074301;28;46872;-63
2023/10/26 02:11:29;;;;;;;;;8.75;8.50;;;;;17.27;100.00;99022.00;2069933;28;46275;-62
2023/10/26 02:12:29;;;;;;;;;7.33;7.33;;;;;17.39;100.00;99032.75;2061486;28;45996;-64
2023/10/26 02:13:29;;;;;;;;;12.33;10.00;;;;;17.41;100.00;99026.31;2065928;28;47115;-61
2023/10/26 02:14:30;;;;;;;;;10.00;7.33;;;;;17.38;100.00;99015.81;2063687;28;45602;-63
2023/10/26 02:15:30;;;;;;;;;7.33;6.67;;;;;17.39;100.00;99017.53;2066558;28;46179;-63
2023/10/26 02:16:30;;;;;;;;;10.00;10.00;;;;;17.42;100.00;99016.44;2070568;28;46316;-63
2023/10/26 02:17:31;;;;;;;;;6.67;6.00;;;;;17.34;100.00;99019.72;2066883;28;47062;-65
2023/10/26 02:18:31;;;;;;;;;8.33;8.00;;;;;17.38;100.00;99010.44;2065843;28;46530;-63
2023/10/26 02:19:31;;;;;;;;;6.67;6.00;;;;;17.36;100.00;99010.56;2062552;28;46684;-61
2023/10/26 02:20:32;;;;;;;;;8.67;8.67;;;;;17.38;100.00;99009.59;2069885;28;46786;-58
2023/10/26 02:21:32;;;;;;;;;7.33;7.33;;;;;17.39;100.00;99008.63;2067511;28;46324;-63
2023/10/26 02:22:34;;;;;;;;;8.75;8.75;;;;;17.33;100.00;98996.56;2068724;28;47011;-57
2023/10/26 02:23:34;;;;;;;;;9.67;8.67;;;;;17.37;100.00;99003.38;2066964;27;46143;-60
2023/10/26 02:24:34;;;;;;;;;10.00;10.00;;;;;17.39;100.00;99000.56;2074230;28;45574;-62
2023/10/26 02:25:35;;;;;;;;;8.00;8.00;;;;;17.40;100.00;99003.13;2057581;28;46647;-62
2023/10/26 02:26:35;;;;;;;;;7.67;7.67;;;;;17.44;100.00;98993.91;2077464;28;46765;-64
2023/10/26 02:27:35;;;;;;;;;6.67;6.67;;;;;17.32;100.00;99009.09;2066719;28;45797;-64
2023/10/26 02:28:36;;;;;;;;;7.67;7.67;;;;;17.45;100.00;98998.28;2071000;28;45509;-57
2023/10/26 02:29:36;;;;;;;;;4.33;4.33;;;;;17.43;100.00;99007.44;2070008;28;46457;-63
2023/10/26 02:30:36;;;;;;;;;7.00;7.00;;;;;17.40;100.00;99002.28;2064050;28;45604;-59
2023/10/26 02:31:37;;;;;;;;;10.00;10.00;;;;;17.33;100.00;99000.09;2068816;28;45753;-61
2023/10/26 02:32:37;;;;;;;;;7.00;7.00;;;;;17.38;100.00;98999.72;2069964;28;46637;-64
2023/10/26 02:33:38;;;;;;;;;7.00;6.33;;;;;17.39;100.00;99000.56;2065523;28;46483;-65
2023/10/26 02:34:38;;;;;;;;;6.33;6.33;;;;;17.39;100.00;98997.91;2073571;28;46300;-64
2023/10/26 02:35:39;;;;;;;;;7.00;6.00;;;;;17.39;100.00;98998.75;2066515;28;46432;-62
2023/10/26 02:36:39;;;;;;;;;6.00;5.00;;;;;17.25;100.00;99002.50;2063619;28;46352;-59
2023/10/26 02:37:40;;;;;;;;;5.00;5.00;;;;;17.40;100.00;98997.78;2066161;28;45421;-65
2023/10/26 02:38:40;;;;;;;;;5.00;5.00;;;;;17.29;100.00;98995.94;2064617;28;46824;-62
2023/10/26 02:39:41;;;;;;;;;9.33;8.00;;;;;17.34;100.00;98992.91;2062314;28;46194;-63
2023/10/26 02:40:41;;;;;;;;;6.00;6.00;;;;;17.41;100.00;98987.94;2075611;28;46779;-64
2023/10/26 02:41:41;;;;;;;;;4.67;4.67;;;;;17.41;100.00;98982.56;2062022;28;47616;-64
2023/10/26 02:42:42;;;;;;;;;6.33;6.33;;;;;17.40;100.00;98980.84;2066659;28;46253;-59
2023/10/26 02:43:42;;;;;;;;;5.67;4.33;;;;;17.41;100.00;98977.22;2068772;28;46857;-63
2023/10/26 02:44:44;;;;;;;;;5.00;5.00;;;;;17.36;100.00;98977.53;2105098;27;46761;-65
2023/10/26 02:45:44;;;;;;;;;5.00;4.75;;;;;17.38;100.00;98978.28;2068974;28;46709;-63
2023/10/26 02:46:44;;;;;;;;;6.67;6.67;;;;;17.42;100.00;98979.75;2062747;28;46772;-65
2023/10/26 02:47:45;;;;;;;;;4.00;4.00;;;;;17.43;100.00;98980.63;2071549;28;46421;-62
2023/10/26 02:48:45;;;;;;;;;6.33;6.33;;;;;17.43;100.00;98972.56;2071125;28;46737;-64
2023/10/26 02:49:45;;;;;;;;;7.00;7.00;;;;;17.42;100.00;98976.22;2079126;28;46323;-59
2023/10/26 02:50:46;;;;;;;;;4.33;3.67;;;;;17.42;100.00;98973.53;2081354;28;46189;-65
2023/10/26 02:51:46;;;;;;;;;4.00;4.00;;;;;17.42;100.00;98977.09;2053181;28;46457;-66
2023/10/26 02:52:46;;;;;;;;;4.33;4.33;;;;;17.32;100.00;98970.72;2104192;28;46240;-64
2023/10/26 02:53:47;;;;;;;;;4.67;4.67;;;;;17.37;100.00;98973.88;2062270;28;46056;-60
2023/10/26 02:54:47;;;;;;;;;5.33;5.33;;;;;17.38;100.00;98964.88;2063316;28;46288;-61
2023/10/26 02:55:48;;;;;;;;;5.00;4.67;;;;;17.39;100.00;98969.25;2066463;28;46660;-61
2023/10/26 02:56:48;;;;;;;;;5.00;4.00;;;;;17.40;100.00;98968.28;2069390;28;46375;-64
2023/10/26 02:57:48;;;;;;;;;5.00;5.00;;;;;17.41;100.00;98961.97;2076418;28;46209;-63
2023/10/26 02:58:49;;;;;;;;;4.00;3.67;;;;;17.42;100.00;98966.34;2066585;28;46509;-62
2023/10/26 02:59:49;;;;;;;;;4.67;4.67;;;;;17.43;100.00;98960.00;2057628;28;46957;-63
2023/10/26 03:00:49;;;;;;;;;3.67;3.67;;;;;17.45;100.00;98952.69;2099943;28;45123;-59
2023/10/26 03:01:50;;;;;;;;;3.00;3.00;;;;;17.44;100.00;98955.50;2079437;28;46185;-60
2023/10/26 03:02:50;;;;;;;;;4.67;4.67;;;;;17.42;100.00;98958.31;2070915;28;46814;-62
2023/10/26 03:03:51;;;;;;;;;5.33;5.33;;;;;17.44;100.00;98955.50;2063726;28;46407;-61
2023/10/26 03:04:51;;;;;;;;;4.00;4.00;;;;;17.32;100.00;98944.75;2063001;28;46823;-61
2023/10/26 03:05:52;;;;;;;;;4.00;4.00;;;;;17.43;100.00;98941.25;2062941;28;46228;-62
2023/10/26 03:06:52;;;;;;;;;4.67;4.67;;;;;17.42;100.00;98938.69;2067055;28;45813;-65
2023/10/26 03:07:52;;;;;;;;;4.33;4.33;;;;;17.41;100.00;98929.78;2070346;27;46642;-61
2023/10/26 03:08:53;;;;;;;;;4.00;4.00;;;;;17.43;100.00;98935.03;2068897;28;46441;-65
2023/10/26 03:09:53;;;;;;;;;5.00;4.33;;;;;17.44;100.00;98937.59;2065794;28;45518;-65
2023/10/26 03:10:53;;;;;;;;;5.33;5.33;;;;;17.43;100.00;98929.66;2070884;28;46831;-59
2023/10/26 03:11:54;;;;;;;;;5.33;5.33;;;;;17.45;100.00;98923.19;2064041;28;46651;-57
2023/10/26 03:12:54;;;;;;;;;4.00;4.00;;;;;17.45;100.00;98925.03;2062447;28;46594;-62
2023/10/26 03:13:54;;;;;;;;;3.33;3.33;;;;;17.46;100.00;98926.72;2061539;27;46664;-61
2023/10/26 03:14:55;;;;;;;;;3.00;3.00;;;;;17.43;100.00;98922.47;2067951;28;46522;-63
2023/10/26 03:15:55;;;;;;;;;2.67;2.67;;;;;17.44;100.00;98918.81;2060524;28;46909;-62
2023/10/26 03:16:55;;;;;;;;;4.33;3.33;;;;;17.42;100.00;98918.09;2068279;28;46642;-65
2023/10/26 03:17:55;;;;;;;;;5.00;4.00;;;;;17.41;100.00;98916.38;2075434;28;46612;-64
2023/10/26 03:18:56;;;;;;;;;4.00;2.67;;;;;17.40;100.00;98916.47;2095076;27;45619;-65
2023/10/26 03:19:56;;;;;;;;;3.00;3.00;;;;;17.41;100.00;98924.44;2069041;27;45836;-62
2023/10/26 03:20:58;;;;;;;;;4.00;4.00;;;;;17.42;100.00;98922.59;2096404;28;46184;-60
2023/10/26 03:21:58;;;;;;;;;3.75;3.75;;;;;17.39;100.00;98920.97;2079073;28;45441;-63
2023/10/26 03:22:59;;;;;;;;;3.33;3.33;;;;;17.36;100.00;98915.88;2103508;28;46473;-62
2023/10/26 03:23:59;;;;;;;;;3.33;3.33;;;;;17.42;100.00;98912.72;2090006;28;46830;-62
2023/10/26 03:25:00;;;;;;;;;2.67;2.67;;;;;17.44;100.00;98901.88;2096117;28;46617;-62
2023/10/26 03:26:00;;;;;;;;;4.00;3.00;;;;;17.44;100.00;98902.72;2066194;28;45966;-61
2023/10/26 03:27:01;;;;;;;;;4.33;4.00;;;;;17.43;100.00;98906.38;2098209;28;46535;-60
2023/10/26 03:28:01;;;;;;;;;4.00;4.00;;;;;17.43;100.00;98914.44;2090722;28;46764;-65
2023/10/26 03:29:02;;;;;;;;;3.67;3.67;;;;;17.44;100.00;98904.56;2096735;28;46642;-65
2023/10/26 03:30:05;;;;;;;;;5.75;5.75;;;;;17.44;100.00;98910.78;2075830;28;46825;-61
2023/10/26 03:31:14;;;;;;;;;4.00;4.00;;;;;17.45;100.00;98909.78;2071484;27;46752;-62
2023/10/26 03:32:15;;;;;;;;;4.00;4.00;;;;;17.44;100.00;98909.91;2094084;28;46598;-60
2023/10/26 03:33:15;;;;;;;;;5.00;5.00;;;;;17.47;100.00;98910.53;2074775;28;46377;-64
2023/10/26 03:34:15;;;;;;;;;5.67;5.67;;;;;17.45;100.00;98908.94;2061913;28;46702;-62
2023/10/26 03:35:16;;;;;;;;;6.67;6.67;;;;;17.47;100.00;98896.25;2084736;28;46701;-61
2023/10/26 03:36:18;;;;;;;;;6.67;6.00;;;;;17.48;100.00;98900.66;2064110;28;46921;-65
2023/10/26 03:37:19;;;;;;;;;4.50;4.25;;;;;17.45;100.00;98891.03;2068975;28;45703;-60
2023/10/26 03:38:19;;;;;;;;;6.00;6.00;;;;;17.44;100.00;98892.00;2081499;28;44929;-65
2023/10/26 03:39:20;;;;;;;;;4.00;4.00;;;;;17.44;100.00;98894.69;2096719;28;46210;-65
2023/10/26 03:40:20;;;;;;;;;7.67;6.00;;;;;17.44;100.00;98899.19;2097016;28;46002;-62
2023/10/26 03:41:21;;;;;;;;;7.00;6.00;;;;;17.44;100.00;98896.50;2084657;28;45716;-59
2023/10/26 03:42:21;;;;;;;;;6.33;6.33;;;;;17.42;100.00;98885.06;2060630;28;46268;-61
2023/10/26 03:43:21;;;;;;;;;6.33;5.33;;;;;17.43;100.00;98886.75;2081535;28;45583;-59
2023/10/26 03:44:22;;;;;;;;;5.33;5.33;;;;;17.44;100.00;98883.97;2097708;28;47857;-62
2023/10/26 03:45:26;;;;;;;;;9.00;8.67;;;;;17.43;100.00;98884.94;2095008;28;45523;-65
2023/10/26 03:46:27;;;;;;;;;7.25;7.25;;;;;17.44;100.00;98891.16;2098052;28;47000;-60
2023/10/26 03:47:27;;;;;;;;;8.33;7.33;;;;;17.44;100.00;98891.16;2092975;28;45884;-59
2023/10/26 03:48:27;;;;;;;;;8.00;8.00;;;;;17.44;100.00;98885.78;2095559;28;46171;-62
2023/10/26 03:49:28;;;;;;;;;9.33;8.00;;;;;17.43;100.00;98887.63;2096002;28;46039;-60
2023/10/26 03:50:28;;;;;;;;;7.67;6.67;;;;;17.44;100.00;98883.97;2095037;28;46382;-64
2023/10/26 03:51:28;;;;;;;;;5.67;5.67;;;;;17.44;100.00;98886.63;2092257;28;46950;-65
2023/10/26 03:52:29;;;;;;;;;6.00;6.00;;;;;17.45;100.00;98890.16;2098601;28;45601;-57
2023/10/26 03:53:29;;;;;;;;;5.00;5.00;;;;;17.43;100.00;98892.97;2093235;28;46362;-65
2023/10/26 03:54:30;;;;;;;;;5.00;4.00;;;;;17.42;100.00;98888.59;2102115;28;46456;-61
2023/10/26 03:55:30;;;;;;;;;6.67;6.67;;;;;17.41;100.00;98894.94;2102108;28;46515;-63
2023/10/26 03:56:31;;;;;;;;;10.00;9.00;;;;;17.41;100.00;98889.56;2095996;28;46745;-62
2023/10/26 03:57:34;;;;;;;;;10.00;9.33;;;;;17.44;100.00;98889.31;2093456;28;46655;-63
2023/10/26 03:58:34;;;;;;;;;11.50;9.00;;;;;17.45;100.00;98895.53;2087584;28;46088;-63
2023/10/26 03:59:34;;;;;;;;;6.00;6.00;;;;;17.45;100.00;98890.16;2094595;28;46478;-63
2023/10/26 04:00:35;;;;;;;;;9.00;9.00;;;;;17.47;100.00;98885.53;2097548;28;46331;-61
2023/10/26 04:01:35;;;;;;;;;6.00;6.00;;;;;17.45;100.00;98888.34;2093293;28;46128;-63
2023/10/26 04:02:35;;;;;;;;;7.33;7.33;;;;;17.45;100.00;98896.38;2097814;28;47013;-63
2023/10/26 04:03:36;;;;;;;;;6.33;6.33;;;;;17.46;100.00;98889.19;2094293;28;46542;-61
2023/10/26 04:04:36;;;;;;;;;8.00;8.00;;;;;17.44;100.00;98883.09;2095646;28;46295;-63
2023/10/26 04:05:37;;;;;;;;;8.00;7.67;;;;;17.44;100.00;98883.97;2094085;28;45132;-61
2023/10/26 04:06:37;;;;;;;;;8.00;7.00;;;;;17.45;100.00;98882.97;2087577;28;45613;-62
2023/10/26 04:07:41;;;;;;;;;7.00;6.00;;;;;17.46;100.00;98883.84;2086514;28;46372;-63
2023/10/26 04:08:41;;;;;;;;;5.50;5.50;;;;;17.46;100.00;98881.16;2097024;28;46663;-64
2023/10/26 04:09:42;;;;;;;;;4.67;4.33;;;;;17.44;100.00;98875.91;2093845;28;45817;-62
2023/10/26 04:10:42;;;;;;;;;6.33;6.33;;;;;17.45;100.00;98880.28;2095576;28;46767;-62
2023/10/26 04:11:44;;;;;;;;;5.33;5.33;;;;;17.43;100.00;98884.09;2093723;28;46541;-59
2023/10/26 04:12:44;;;;;;;;;5.25;5.25;;;;;17.42;100.00;98877.00;2095490;28;45524;-65
2023/10/26 04:13:45;;;;;;;;;7.00;7.00;;;;;17.42;100.00;98880.53;2093921;28;46743;-61
2023/10/26 04:14:45;;;;;;;;;6.00;6.00;;;;;17.42;100.00;98882.38;2095808;28;46067;-60
2023/10/26 04:15:45;;;;;;;;;7.00;6.33;;;;;17.41;100.00;98878.84;2088647;28;46056;-64
2023/10/26 04:16:49;;;;;;;;;5.00;5.00;;;;;17.45;100.00;98882.97;2061961;28;45926;-65
2023/10/26 04:17:50;;;;;;;;;6.00;6.00;;;;;17.44;100.00;98878.59;2068478;28;46883;-60
2023/10/26 04:18:51;;;;;;;;;6.67;6.67;;;;;17.45;100.00;98874.06;2082837;28;46745;-64
2023/10/26 04:19:51;;;;;;;;;5.67;5.00;;;;;17.45;100.00;98884.81;2079319;28;46622;-63
2023/10/26 04:20:51;;;;;;;;;4.33;3.67;;;;;17.47;100.00;98877.50;2063182;28;46328;-64
2023/10/26 04:21:51;;;;;;;;;4.67;4.67;;;;;17.46;100.00;98884.69;2065038;28;45475;-65
2023/10/26 04:22:52;;;;;;;;;7.00;7.00;;;;;17.47;100.00;98877.50;2069891;28;46143;-62
2023/10/26 04:23:52;;;;;;;;;7.00;7.00;;;;;17.47;100.00;98872.97;2067786;28;45011;-63
2023/10/26 04:24:52;;;;;;;;;7.67;6.67;;;;;17.47;100.00;98874.81;2079383;28;46257;-65
2023/10/26 04:25:53;;;;;;;;;4.67;4.67;;;;;17.50;100.00;98871.88;2063010;28;47899;-61
2023/10/26 04:26:53;;;;;;;;;6.00;6.00;;;;;17.49;100.00;98867.50;2067887;28;46270;-56
2023/10/26 04:27:57;;;;;;;;;5.33;5.00;;;;;17.50;100.00;98869.19;2079860;28;46506;-60
2023/10/26 04:28:58;;;;;;;;;6.75;6.75;;;;;17.48;100.00;98866.63;2071887;28;46414;-63
2023/10/26 04:29:58;;;;;;;;;7.00;6.00;;;;;17.50;100.00;98866.50;2067956;28;46362;-59
2023/10/26 04:30:58;;;;;;;;;6.00;6.00;;;;;17.48;100.00;98869.31;2080373;28;46165;-64
2023/10/26 04:31:59;;;;;;;;;6.67;6.67;;;;;17.49;100.00;98865.66;2066829;28;46672;-64
2023/10/26 04:32:59;;;;;;;;;5.00;5.00;;;;;17.51;100.00;98862.84;2080637;28;47168;-61
2023/10/26 04:34:00;;;;;;;;;5.67;5.67;;;;;17.50;100.00;98867.38;2062629;28;46694;-61
2023/10/26 04:35:00;;;;;;;;;6.33;6.33;;;;;17.49;100.00;98865.66;2079583;28;46488;-65
2023/10/26 04:36:00;;;;;;;;;8.33;8.33;;;;;17.51;100.00;98860.16;2068697;28;46085;-67
2023/10/26 04:37:01;;;;;;;;;6.00;6.00;;;;;17.41;100.00;98867.25;2067909;28;46999;-64
2023/10/26 04:38:01;;;;;;;;;6.67;4.33;;;;;17.52;100.00;98860.03;2066960;28;46185;-64
2023/10/26 04:39:02;;;;;;;;;4.67;4.67;;;;;17.57;100.00;98865.06;2063112;28;46673;-61
2023/10/26 04:40:05;;;;;;;;;4.75;4.75;;;;;17.56;100.00;98855.31;2066458;28;46134;-65
2023/10/26 04:41:06;;;;;;;;;4.75;4.75;;;;;17.54;100.00;98854.59;2067322;28;46889;-62